Zomergem, Belgium
Current Conditions -  °F | °C
As of 2:55 PM on Thursday 30 Oct 2014 (Local Time) from EHFS Reporting Station
Clear Clear  
Wind Chill: 61°   Ceiling: Unl
Heat Index: 61°   Visibility: 6mi
Dew Point: 57°   Wind: 15mph
Humidity: 88%   Direction: 180°S
Pressure: 30.12"   Gusts: NA
Location:  51.12°N, 3.56°E
Report Text: EHFS 301355Z AUTO 18013KT 9999 NSC 16/14 Q1020
Loading
Personal Weather Stations






























Interactive Weather Map
Tropical Storm Tracking
New forecast layout! Learn more

10-Day Weather Forecast

Advertisements
Track Severe Weather on mobile